createdAt,value
2018-12-13T00:04:31.713Z,101303.59
2018-12-13T00:09:33.869Z,101299.25
2018-12-13T00:14:36.103Z,101283.83
2018-12-13T00:19:38.169Z,101282.61
2018-12-13T00:24:40.317Z,101284.08
2018-12-13T00:29:42.484Z,101286.65
2018-12-13T00:34:44.661Z,101296.23
2018-12-13T00:39:46.861Z,101299.16
2018-12-13T00:44:49.154Z,101292.09
2018-12-13T00:49:51.331Z,101282.08
2018-12-13T00:54:53.573Z,101290.08
2018-12-13T00:59:55.741Z,101282.55
2018-12-13T01:04:57.790Z,101286.80
2018-12-13T01:09:59.853Z,101295.58
2018-12-13T01:15:09.892Z,101289.31
2018-12-13T01:20:12.053Z,101280.66
2018-12-13T01:25:15.153Z,101282.62
2018-12-13T01:30:17.328Z,101275.17
2018-12-13T01:35:19.493Z,101276.86
2018-12-13T01:40:21.769Z,101268.77
2018-12-13T01:45:23.945Z,101261.32
2018-12-13T01:50:26.201Z,101259.98
2018-12-13T01:55:28.254Z,101263.65
2018-12-13T02:00:30.437Z,101259.61
2018-12-13T02:05:32.485Z,101260.37
2018-12-13T02:10:34.686Z,101259.21
2018-12-13T02:15:36.965Z,101256.48
2018-12-13T02:20:40.013Z,101254.44
2018-12-13T02:25:42.277Z,101251.95
2018-12-13T02:30:44.557Z,101247.84
2018-12-13T02:35:46.704Z,101242.11
2018-12-13T02:40:49.498Z,101240.79
2018-12-13T02:45:51.771Z,101243.05
2018-12-13T02:50:53.828Z,101251.05
2018-12-13T02:55:56.020Z,101236.75
2018-12-13T03:00:58.094Z,101239.23
2018-12-13T03:06:00.257Z,101236.38
2018-12-13T03:11:02.461Z,101228.78
2018-12-13T03:16:04.732Z,101227.38
2018-12-13T03:21:08.805Z,101220.51
2018-12-13T03:26:17.622Z,101225.49
2018-12-13T03:31:19.789Z,101215.70
2018-12-13T03:36:21.889Z,101209.32
2018-12-13T03:41:24.221Z,101205.98
2018-12-13T03:46:26.492Z,101202.24
2018-12-13T03:51:36.299Z,101204.35
2018-12-13T03:56:38.471Z,101199.22
2018-12-13T04:01:40.541Z,101199.47
2018-12-13T04:06:42.965Z,101196.11
2018-12-13T04:11:45.128Z,101194.03
2018-12-13T04:16:47.291Z,101188.88
2018-12-13T04:21:50.145Z,101188.55
2018-12-13T04:26:52.290Z,101187.02
2018-12-13T04:31:54.478Z,101188.40
2018-12-13T04:36:56.534Z,101184.00
2018-12-13T04:41:58.733Z,101177.55
2018-12-13T04:47:00.781Z,101173.05
2018-12-13T04:52:03.238Z,101171.80
2018-12-13T04:57:05.414Z,101171.00
2018-12-13T05:02:14.624Z,101164.24
2018-12-13T05:07:16.954Z,101162.70
2018-12-13T05:12:18.997Z,101160.75
2018-12-13T05:17:28.305Z,101157.42
2018-12-13T05:22:30.373Z,101152.82
2018-12-13T05:27:39.361Z,101155.20
2018-12-13T05:32:41.449Z,101153.88
2018-12-13T05:37:48.221Z,101156.30
2018-12-13T05:42:47.734Z,101158.95
2018-12-13T05:47:50.236Z,101157.63
2018-12-13T05:52:52.722Z,101154.67
2018-12-13T05:57:54.768Z,101154.36
2018-12-13T06:02:56.825Z,101153.67
2018-12-13T06:07:59.117Z,101147.69
2018-12-13T06:13:01.581Z,101150.39
2018-12-13T06:18:06.809Z,101154.14
2018-12-13T06:23:08.013Z,101144.61
2018-12-13T06:28:10.169Z,101152.08
2018-12-13T06:33:12.358Z,101147.37
2018-12-13T06:38:14.701Z,101161.06
2018-12-13T06:43:16.865Z,101155.68
2018-12-13T06:48:18.945Z,101154.45
2018-12-13T06:53:21.249Z,101160.97
2018-12-13T06:58:23.525Z,101160.95
2018-12-13T07:03:32.594Z,101159.31
2018-12-13T07:08:34.800Z,101160.54
2018-12-13T07:13:37.000Z,101156.39
2018-12-13T07:18:39.059Z,101152.13
2018-12-13T07:23:41.222Z,101147.38
2018-12-13T07:28:43.398Z,101144.02
2018-12-13T07:33:46.753Z,101144.73
2018-12-13T07:38:49.183Z,101144.98
2018-12-13T07:43:51.256Z,101143.57
2018-12-13T07:48:56.415Z,101136.80
2018-12-13T07:53:57.394Z,101144.97
2018-12-13T07:58:59.538Z,101144.33
2018-12-13T08:04:01.721Z,101145.02
2018-12-13T08:09:06.673Z,101148.51
2018-12-13T08:14:09.885Z,101145.86
2018-12-13T08:19:12.053Z,101147.33
2018-12-13T08:24:16.258Z,101150.72
2018-12-13T08:29:21.485Z,101140.55
2018-12-13T08:34:24.701Z,101151.55
2018-12-13T08:39:26.781Z,101144.32
2018-12-13T08:44:28.997Z,101147.06
2018-12-13T08:49:31.230Z,101149.11
2018-12-13T08:54:33.402Z,101144.44
2018-12-13T08:59:35.577Z,101148.22
2018-12-13T09:04:38.534Z,101151.45
2018-12-13T09:09:40.737Z,101139.55
2018-12-13T09:14:42.814Z,101136.66
2018-12-13T09:19:44.873Z,101127.95
2018-12-13T09:24:47.159Z,101114.05
2018-12-13T09:29:49.230Z,101119.39
2018-12-13T09:34:51.289Z,101122.52
2018-12-13T09:39:54.377Z,101121.02
2018-12-13T09:44:56.581Z,101119.53
2018-12-13T09:49:58.845Z,101114.16
2018-12-13T09:55:05.619Z,101107.74
2018-12-13T10:00:07.583Z,101098.45
2018-12-13T10:05:10.857Z,101091.83
2018-12-13T10:10:14.305Z,101084.83
2018-12-13T10:15:16.582Z,101074.94
2018-12-13T10:20:18.873Z,101069.96
2018-12-13T10:25:21.038Z,101070.73
2018-12-13T10:30:23.294Z,101064.77
2018-12-13T10:35:25.475Z,101064.95
2018-12-13T10:40:27.993Z,101064.39
2018-12-13T10:45:30.037Z,101061.19
2018-12-13T10:50:32.234Z,101062.23
2018-12-13T10:55:34.828Z,101047.91
2018-12-13T11:00:45.389Z,101036.36
2018-12-13T11:05:47.556Z,101051.59
2018-12-13T11:10:49.757Z,101054.25
2018-12-13T11:15:52.007Z,101050.09
2018-12-13T11:20:54.198Z,101042.99
2018-12-13T11:25:56.341Z,101036.66
2018-12-13T11:30:58.637Z,101036.65
2018-12-13T11:36:00.806Z,101027.94
2018-12-13T11:41:03.209Z,101016.48
2018-12-13T11:46:05.421Z,101011.49
2018-12-13T11:51:07.576Z,101015.56
2018-12-13T11:56:09.876Z,101021.86
2018-12-13T12:01:12.077Z,101010.73
2018-12-13T12:06:14.369Z,101010.25
2018-12-13T12:11:16.457Z,101010.59
2018-12-13T12:16:18.541Z,101007.32
2018-12-13T12:21:20.710Z,101005.63
2018-12-13T12:26:23.018Z,101001.28
2018-12-13T12:31:25.077Z,101004.41
2018-12-13T12:36:27.676Z,100998.23
2018-12-13T12:41:29.945Z,100995.91
2018-12-13T12:46:32.161Z,100994.78
2018-12-13T12:51:34.334Z,100985.89
2018-12-13T12:56:37.597Z,100987.34
2018-12-13T13:01:40.309Z,100985.45
2018-12-13T13:06:42.654Z,100978.55
2018-12-13T13:17:13.500Z,100980.44
2018-12-13T13:22:15.550Z,100979.02
2018-12-13T13:27:17.626Z,100972.87
2018-12-13T13:32:19.737Z,100969.55
2018-12-13T13:37:21.929Z,100964.33
2018-12-13T13:42:24.092Z,100970.77
2018-12-13T13:47:26.670Z,100971.22
2018-12-13T13:52:30.070Z,100972.73
2018-12-13T13:57:33.112Z,100973.05
2018-12-13T14:02:35.454Z,100973.06
2018-12-13T14:07:37.502Z,100977.02
2018-12-13T14:12:39.572Z,100979.23
2018-12-13T14:17:42.675Z,100985.39
2018-12-13T14:22:54.218Z,100981.68
2018-12-13T14:27:58.047Z,100979.89
2018-12-13T14:33:00.530Z,100974.95
2018-12-13T14:38:03.239Z,100977.80
2018-12-13T14:43:06.909Z,100973.17
2018-12-13T14:48:09.141Z,100971.77
2018-12-13T14:53:11.649Z,100967.61
2018-12-13T14:58:13.741Z,100972.72
2018-12-13T15:03:15.987Z,100971.94
2018-12-13T15:08:18.034Z,100976.69
2018-12-13T15:13:20.162Z,100980.84
2018-12-13T15:18:22.518Z,100973.09
2018-12-13T15:23:25.674Z,100982.91
2018-12-13T15:28:27.829Z,100977.55
2018-12-13T15:33:36.957Z,100977.44
2018-12-13T15:38:39.265Z,100981.97
2018-12-13T15:43:41.442Z,100981.97
2018-12-13T15:48:43.554Z,100975.45
2018-12-13T15:53:46.715Z,100984.06
2018-12-13T15:58:54.914Z,100988.30
2018-12-13T16:03:58.297Z,100976.78
2018-12-13T16:09:00.461Z,100983.51
2018-12-13T16:14:03.601Z,100981.30
2018-12-13T16:19:05.921Z,100978.40
2018-12-13T16:24:08.197Z,100981.67
2018-12-13T16:29:10.345Z,100979.69
2018-12-13T16:34:12.569Z,100976.56
2018-12-13T16:39:14.845Z,100976.09
2018-12-13T16:44:16.889Z,100979.87
2018-12-13T16:49:19.658Z,100977.41
2018-12-13T16:54:22.445Z,100987.82
2018-12-13T16:59:24.913Z,100986.42
2018-12-13T17:04:27.201Z,100987.75
2018-12-13T17:09:29.790Z,100988.77
2018-12-13T17:14:32.596Z,100981.39
2018-12-13T17:19:34.713Z,100976.86
2018-12-13T17:24:36.997Z,100972.70
2018-12-13T17:29:39.337Z,100979.69
2018-12-13T17:34:41.968Z,100977.41
2018-12-13T17:39:44.725Z,100982.64
2018-12-13T17:44:46.987Z,100984.44
2018-12-13T17:49:49.784Z,100988.22
2018-12-13T17:54:52.106Z,100989.44
2018-12-13T17:59:54.462Z,100980.72
2018-12-13T18:04:57.649Z,100984.21
2018-12-13T18:10:03.989Z,100980.24
2018-12-13T18:15:07.169Z,100991.67
2018-12-13T18:20:16.177Z,100994.62
2018-12-13T18:25:18.894Z,100988.19
2018-12-13T18:30:21.208Z,100991.97
2018-12-13T18:35:23.421Z,100997.08
2018-12-13T18:40:25.710Z,100992.82
2018-12-13T18:45:32.894Z,101000.31
2018-12-13T18:50:35.138Z,101003.33
2018-12-13T18:55:37.186Z,101004.29
2018-12-13T19:00:39.334Z,101006.06
2018-12-13T19:05:41.651Z,101003.04
2018-12-13T19:10:43.934Z,101005.13
2018-12-13T19:15:45.991Z,100999.91
2018-12-13T19:20:48.084Z,100999.55
2018-12-13T19:25:50.162Z,100997.86
2018-12-13T19:30:52.197Z,101006.35
2018-12-13T19:35:54.475Z,101007.42
2018-12-13T19:40:56.646Z,101000.10
2018-12-13T19:45:59.191Z,101007.49
2018-12-13T19:51:01.493Z,101013.74
2018-12-13T19:56:03.759Z,101016.39
2018-12-13T20:01:06.033Z,101013.63
2018-12-13T20:06:08.965Z,101018.08
2018-12-13T20:11:11.122Z,101016.57
2018-12-13T20:16:13.390Z,101027.34
2018-12-13T20:21:15.537Z,101029.03
2018-12-13T20:26:17.756Z,101027.23
2018-12-13T20:31:19.905Z,101025.06
2018-12-13T20:36:22.183Z,101030.55
2018-12-13T20:41:24.499Z,101040.22
2018-12-13T20:46:27.233Z,101042.76
2018-12-13T20:51:29.521Z,101041.84
2018-12-13T20:56:31.834Z,101029.15
2018-12-13T21:01:33.985Z,101038.49
2018-12-13T21:06:36.219Z,101037.64
2018-12-13T21:11:38.418Z,101045.39
2018-12-13T21:16:40.605Z,101036.23
2018-12-13T21:21:42.827Z,101033.41
2018-12-13T21:26:45.940Z,101033.73
2018-12-13T21:31:48.085Z,101036.04
2018-12-13T21:36:50.245Z,101033.00
2018-12-13T21:41:52.449Z,101022.90
2018-12-13T21:46:54.729Z,101021.09
2018-12-13T21:51:56.975Z,101022.14
2018-12-13T21:56:59.494Z,101018.58
2018-12-13T22:02:01.790Z,101020.46
2018-12-13T22:07:04.111Z,101018.19
2018-12-13T22:12:06.404Z,101027.00
2018-12-13T22:17:08.586Z,101026.05
2018-12-13T22:22:10.754Z,101026.90
2018-12-13T22:27:12.905Z,101026.35
2018-12-13T22:32:16.077Z,101025.69
2018-12-13T22:37:18.129Z,101024.06
2018-12-13T22:42:20.422Z,101029.78
2018-12-13T22:47:22.714Z,101019.33
2018-12-13T22:52:24.902Z,101027.59
2018-12-13T22:57:27.183Z,101034.34
2018-12-13T23:02:29.481Z,101042.06
2018-12-13T23:07:31.633Z,101042.55
2018-12-13T23:12:33.729Z,101033.72
2018-12-13T23:17:35.928Z,101036.32
2018-12-13T23:22:38.078Z,101038.80
2018-12-13T23:27:40.139Z,101034.05
2018-12-13T23:32:42.227Z,101033.37
2018-12-13T23:37:44.263Z,101027.11
2018-12-13T23:42:46.423Z,101024.87
2018-12-13T23:47:48.584Z,101023.81
2018-12-13T23:52:51.736Z,101028.26
2018-12-13T23:57:53.894Z,101027.41
